Terminal Aerodrome Forecast
Issued by NWS

Home | Current Version | Previous Version | Text Only | Print | Product List | Glossary On
Versions: 1 2 3 4 5 6 7 8 9 10 11 12 13 14 15 16 17 18 19 20 21 22 23 24 25
000
FTUS45 KBOU 171051 AAA
TAFBJC
TAF AMD
KBJC 171051Z 1711/1806 23015KT P6SM FEW120 SCT200 WS020/24035KT
     FM171500 23015G25KT P6SM FEW120 SCT200
     FM171700 25022G35KT P6SM FEW150
     FM172000 28030G40KT P6SM FEW100 BKN150
      TEMPO 1720/1723 28040G50KT
     FM180100 30020G30KT P6SM FEW150 SCT200=

USA.gov is the U.S. government's official web portal to all federal, state and local government web resources and services.